Time;durP1;ratioP1;P1;durP2;ratioP2;P2;SDS_P1;SDS_P2;PMS_P1;PMS_P2;Temp;Humidity;BMP_temperature;BMP_pressure;BME280_temperature;BME280_humidity;BME280_pressure;Samples;Min_cycle;Max_cycle;Signal;HPM_P1;HPM_P2
2023/12/16 00:02:58;;;;;;;2.60;2.40;;;;;;;;;;6023104;29;20587;-70
2023/12/16 00:06:02;;;;;;;2.40;2.40;;;;;;;;;;6023737;29;20297;-69
2023/12/16 00:09:06;;;;;;;2.43;2.30;;;;;;;;;;6023095;29;20306;-71
2023/12/16 00:12:11;;;;;;;2.93;2.73;;;;;;;;;;6003069;29;20306;-69
2023/12/16 00:15:15;;;;;;;2.50;2.40;;;;;;;;;;6000399;29;20309;-69
2023/12/16 00:18:19;;;;;;;4.93;2.70;;;;;;;;;;6000165;29;20296;-69
2023/12/16 00:21:23;;;;;;;2.40;2.40;;;;;;;;;;6000656;29;20315;-69
2023/12/16 00:24:28;;;;;;;2.50;2.40;;;;;;;;;;5999953;29;20617;-70
2023/12/16 00:27:33;;;;;;;2.70;2.60;;;;;;;;;;6000530;29;20305;-69
2023/12/16 00:30:37;;;;;;;2.67;2.63;;;;;;;;;;5999860;29;20602;-69
2023/12/16 00:33:41;;;;;;;2.87;2.67;;;;;;;;;;6000176;29;20480;-69
2023/12/16 00:36:45;;;;;;;2.33;2.30;;;;;;;;;;5999174;29;20297;-68
2023/12/16 00:39:49;;;;;;;2.17;2.17;;;;;;;;;;6016491;29;20392;-69
2023/12/16 00:42:54;;;;;;;2.30;2.30;;;;;;;;;;6022279;29;20314;-69
2023/12/16 00:45:59;;;;;;;4.43;2.50;;;;;;;;;;6022874;29;20310;-68
2023/12/16 00:49:03;;;;;;;2.80;2.47;;;;;;;;;;6021806;29;20296;-70
2023/12/16 00:52:07;;;;;;;2.43;2.33;;;;;;;;;;6022511;29;20311;-70
2023/12/16 00:55:11;;;;;;;3.37;2.50;;;;;;;;;;6022335;29;20605;-70
2023/12/16 00:58:16;;;;;;;2.60;2.50;;;;;;;;;;6021672;29;20302;-70
2023/12/16 01:01:20;;;;;;;2.83;2.50;;;;;;;;;;6022629;29;20483;-70
2023/12/16 01:04:24;;;;;;;2.60;2.40;;;;;;;;;;6020841;29;20316;-70
2023/12/16 01:07:29;;;;;;;3.00;2.50;;;;;;;;;;6014078;29;20309;-70
2023/12/16 01:10:33;;;;;;;2.30;2.20;;;;;;;;;;6007220;29;20302;-70
2023/12/16 01:13:38;;;;;;;2.60;2.40;;;;;;;;;;6021372;29;20296;-70
2023/12/16 01:16:42;;;;;;;2.60;2.47;;;;;;;;;;6021880;29;20301;-70
2023/12/16 01:19:46;;;;;;;2.57;2.37;;;;;;;;;;6021378;29;20302;-70
2023/12/16 01:22:50;;;;;;;2.53;2.33;;;;;;;;;;6021333;29;20293;-70
2023/12/16 01:25:54;;;;;;;2.50;2.30;;;;;;;;;;6022148;29;20297;-70
2023/12/16 01:28:59;;;;;;;2.23;2.13;;;;;;;;;;6020367;29;20300;-70
2023/12/16 01:32:04;;;;;;;2.40;2.40;;;;;;;;;;6021546;29;20492;-70
2023/12/16 01:35:08;;;;;;;2.23;2.23;;;;;;;;;;6021600;29;20292;-70
2023/12/16 01:38:12;;;;;;;2.87;2.77;;;;;;;;;;6021101;29;20330;-70
2023/12/16 01:41:16;;;;;;;2.80;2.60;;;;;;;;;;6021925;29;20298;-70
2023/12/16 01:44:22;;;;;;;2.50;2.37;;;;;;;;;;6021128;29;20304;-70
2023/12/16 01:47:26;;;;;;;2.60;2.40;;;;;;;;;;6020107;29;20305;-70
2023/12/16 01:50:30;;;;;;;2.33;2.17;;;;;;;;;;6021178;29;20479;-70
2023/12/16 01:53:35;;;;;;;2.80;2.60;;;;;;;;;;6021065;29;20469;-70
2023/12/16 01:56:39;;;;;;;2.57;2.43;;;;;;;;;;6021714;29;20305;-70
2023/12/16 01:59:45;;;;;;;2.67;2.43;;;;;;;;;;5998161;29;20575;-70
2023/12/16 02:02:49;;;;;;;2.40;2.30;;;;;;;;;;5997629;29;20318;-70
2023/12/16 02:05:53;;;;;;;2.27;2.27;;;;;;;;;;5998953;29;20301;-70
2023/12/16 02:08:57;;;;;;;5.73;2.73;;;;;;;;;;5998671;29;20306;-70
2023/12/16 02:12:01;;;;;;;5.60;2.50;;;;;;;;;;6018165;29;20301;-71
2023/12/16 02:15:07;;;;;;;2.30;2.20;;;;;;;;;;6021890;29;20329;-70
2023/12/16 02:18:11;;;;;;;2.97;2.23;;;;;;;;;;6023142;29;20301;-70
2023/12/16 02:21:15;;;;;;;2.87;2.60;;;;;;;;;;6025933;29;20312;-70
2023/12/16 02:24:21;;;;;;;5.00;2.40;;;;;;;;;;6025107;29;20296;-70
2023/12/16 02:27:25;;;;;;;2.47;2.13;;;;;;;;;;6025424;29;20457;-70
2023/12/16 02:30:29;;;;;;;3.50;2.37;;;;;;;;;;6024790;29;20301;-70
2023/12/16 02:33:33;;;;;;;2.40;2.27;;;;;;;;;;6024903;29;20306;-70
2023/12/16 02:36:37;;;;;;;2.50;2.30;;;;;;;;;;6025234;29;20622;-70
2023/12/16 02:39:42;;;;;;;5.30;2.53;;;;;;;;;;6024431;29;20296;-70
2023/12/16 02:42:46;;;;;;;2.10;2.00;;;;;;;;;;6024817;29;20297;-70
2023/12/16 02:45:50;;;;;;;2.33;2.13;;;;;;;;;;6025903;29;20296;-70
2023/12/16 02:48:54;;;;;;;4.23;2.10;;;;;;;;;;6024923;29;20300;-70
2023/12/16 02:51:58;;;;;;;7.23;2.53;;;;;;;;;;6025113;29;20309;-70
2023/12/16 02:55:04;;;;;;;2.33;2.13;;;;;;;;;;6024448;29;20321;-70
2023/12/16 02:58:08;;;;;;;2.50;2.40;;;;;;;;;;6024291;29;20318;-70
2023/12/16 03:01:12;;;;;;;4.47;2.33;;;;;;;;;;6024993;29;20314;-70
2023/12/16 03:04:16;;;;;;;5.70;2.43;;;;;;;;;;6023194;29;20465;-70
2023/12/16 03:07:21;;;;;;;6.33;2.73;;;;;;;;;;6023667;29;20300;-70
2023/12/16 03:10:26;;;;;;;3.00;2.80;;;;;;;;;;6016277;29;20302;-70
2023/12/16 03:13:30;;;;;;;7.07;2.77;;;;;;;;;;6002233;29;20301;-69
2023/12/16 03:16:34;;;;;;;6.13;2.60;;;;;;;;;;6002362;29;20712;-68
2023/12/16 03:19:38;;;;;;;2.93;2.70;;;;;;;;;;5993233;29;20310;-70
2023/12/16 03:22:42;;;;;;;3.13;2.50;;;;;;;;;;6001254;29;20294;-70
2023/12/16 03:25:47;;;;;;;2.50;2.27;;;;;;;;;;6016444;29;20304;-70
2023/12/16 03:28:51;;;;;;;3.77;2.50;;;;;;;;;;6000463;29;20293;-70
2023/12/16 03:31:55;;;;;;;3.83;2.47;;;;;;;;;;6001009;29;20309;-70
2023/12/16 03:34:59;;;;;;;6.73;2.63;;;;;;;;;;6001606;29;20310;-69
2023/12/16 03:38:03;;;;;;;4.37;2.67;;;;;;;;;;6004317;29;20305;-69
2023/12/16 03:41:08;;;;;;;5.33;2.50;;;;;;;;;;6024135;29;20610;-70
2023/12/16 03:44:12;;;;;;;7.10;2.60;;;;;;;;;;6037782;29;20302;-70
2023/12/16 03:47:16;;;;;;;4.87;2.80;;;;;;;;;;6024416;29;20302;-70
2023/12/16 03:50:20;;;;;;;5.40;2.90;;;;;;;;;;6023566;29;20298;-70
2023/12/16 03:53:24;;;;;;;5.80;2.60;;;;;;;;;;6023560;29;20238;-70
2023/12/16 03:56:29;;;;;;;6.13;2.57;;;;;;;;;;6024062;29;20305;-69
2023/12/16 03:59:33;;;;;;;6.47;2.70;;;;;;;;;;6023704;29;20300;-70
2023/12/16 04:02:37;;;;;;;2.93;2.40;;;;;;;;;;6022639;29;20297;-69
2023/12/16 04:05:42;;;;;;;5.73;2.60;;;;;;;;;;6007315;29;20294;-70
2023/12/16 04:08:46;;;;;;;5.07;2.97;;;;;;;;;;6018345;29;20304;-69
2023/12/16 04:11:51;;;;;;;9.00;2.80;;;;;;;;;;6013925;29;20330;-70
2023/12/16 04:14:55;;;;;;;8.20;2.70;;;;;;;;;;5993292;29;20462;-70
2023/12/16 04:18:00;;;;;;;5.17;2.20;;;;;;;;;;6013317;29;20306;-69
2023/12/16 04:21:04;;;;;;;3.03;2.60;;;;;;;;;;6005058;29;20310;-69
2023/12/16 04:24:08;;;;;;;5.67;2.47;;;;;;;;;;6011011;29;20305;-70
2023/12/16 04:27:14;;;;;;;2.50;2.33;;;;;;;;;;6023107;29;20305;-70
2023/12/16 04:30:17;;;;;;;6.90;2.70;;;;;;;;;;6001060;29;20302;-69
2023/12/16 04:33:21;;;;;;;4.20;2.50;;;;;;;;;;6000746;29;20298;-69
2023/12/16 04:36:25;;;;;;;2.70;2.30;;;;;;;;;;6002185;29;20483;-70
2023/12/16 04:39:29;;;;;;;6.93;2.77;;;;;;;;;;6022402;29;20310;-70
2023/12/16 04:42:34;;;;;;;8.37;2.60;;;;;;;;;;6023364;29;20298;-70
2023/12/16 04:45:38;;;;;;;2.93;2.43;;;;;;;;;;6021995;29;20298;-70
2023/12/16 04:48:42;;;;;;;5.27;2.43;;;;;;;;;;6022292;29;20583;-70
2023/12/16 04:51:46;;;;;;;3.23;2.20;;;;;;;;;;6022855;29;20465;-70
2023/12/16 04:54:50;;;;;;;5.30;2.50;;;;;;;;;;6021782;29;20561;-69
2023/12/16 04:57:56;;;;;;;3.70;2.80;;;;;;;;;;6022751;29;20304;-70
2023/12/16 05:00:59;;;;;;;4.93;2.80;;;;;;;;;;6004941;29;20313;-70
2023/12/16 05:04:03;;;;;;;6.87;3.10;;;;;;;;;;6000377;29;20317;-69
2023/12/16 05:07:07;;;;;;;6.33;2.93;;;;;;;;;;5999859;29;20315;-70
2023/12/16 05:10:12;;;;;;;5.43;2.73;;;;;;;;;;5999587;29;20322;-69
2023/12/16 05:13:17;;;;;;;5.87;2.57;;;;;;;;;;6021969;29;20306;-69
2023/12/16 05:16:21;;;;;;;5.77;2.53;;;;;;;;;;6020591;29;20587;-70
2023/12/16 05:19:25;;;;;;;5.27;2.37;;;;;;;;;;6022075;29;20305;-70
2023/12/16 05:22:33;;;;;;;7.67;2.90;;;;;;;;;;6022933;29;20302;-70
2023/12/16 05:25:39;;;;;;;7.57;2.50;;;;;;;;;;6021667;29;20305;-69
2023/12/16 05:28:44;;;;;;;5.97;2.47;;;;;;;;;;6021757;29;22090;-69
2023/12/16 05:31:48;;;;;;;5.43;2.23;;;;;;;;;;6022467;29;20298;-69
2023/12/16 05:34:52;;;;;;;3.80;2.60;;;;;;;;;;6021424;29;20294;-70
2023/12/16 05:37:56;;;;;;;4.50;2.33;;;;;;;;;;6021461;29;20290;-70
2023/12/16 05:41:00;;;;;;;9.47;2.63;;;;;;;;;;6021282;29;20301;-70
2023/12/16 05:44:05;;;;;;;7.47;2.57;;;;;;;;;;6021589;29;20302;-69
2023/12/16 05:47:09;;;;;;;4.03;2.80;;;;;;;;;;6022057;29;20301;-69
2023/12/16 05:50:13;;;;;;;6.37;2.20;;;;;;;;;;6023936;29;20301;-70
2023/12/16 05:53:17;;;;;;;5.90;2.40;;;;;;;;;;6029520;29;20301;-70
2023/12/16 05:56:21;;;;;;;7.30;3.07;;;;;;;;;;6006451;29;20456;-69
2023/12/16 05:59:26;;;;;;;10.40;2.50;;;;;;;;;;6006093;29;20497;-68
2023/12/16 06:02:30;;;;;;;10.63;2.47;;;;;;;;;;6006744;29;20528;-69
2023/12/16 06:05:33;;;;;;;4.43;2.43;;;;;;;;;;6006692;29;20373;-68
2023/12/16 06:08:37;;;;;;;6.63;2.23;;;;;;;;;;6005903;29;20298;-68
2023/12/16 06:11:41;;;;;;;5.83;2.60;;;;;;;;;;6017737;29;20325;-69
2023/12/16 06:14:47;;;;;;;8.90;2.73;;;;;;;;;;6018877;29;20329;-69
2023/12/16 06:17:51;;;;;;;3.93;2.27;;;;;;;;;;6006987;29;20298;-68
2023/12/16 06:20:56;;;;;;;11.93;2.97;;;;;;;;;;6025337;29;20301;-68
2023/12/16 06:24:00;;;;;;;8.50;2.50;;;;;;;;;;6042866;29;20301;-69
2023/12/16 06:27:04;;;;;;;14.73;3.10;;;;;;;;;;6029154;29;20301;-68
2023/12/16 06:30:11;;;;;;;10.27;2.80;;;;;;;;;;6029045;29;20472;-68
2023/12/16 06:33:15;;;;;;;8.70;2.63;;;;;;;;;;6029338;29;20317;-69
2023/12/16 06:36:18;;;;;;;11.07;2.80;;;;;;;;;;6028361;29;20582;-70
2023/12/16 06:39:22;;;;;;;9.03;2.97;;;;;;;;;;6028391;29;20297;-69
2023/12/16 06:42:26;;;;;;;6.47;2.63;;;;;;;;;;6042892;29;20574;-69
2023/12/16 06:45:31;;;;;;;8.47;2.87;;;;;;;;;;6028306;29;20308;-69
2023/12/16 06:48:35;;;;;;;11.83;3.60;;;;;;;;;;6028258;29;20302;-69
2023/12/16 06:51:39;;;;;;;9.50;2.77;;;;;;;;;;6028726;29;20294;-69
2023/12/16 06:54:44;;;;;;;13.17;2.87;;;;;;;;;;6028586;29;20340;-69
2023/12/16 06:57:47;;;;;;;5.37;2.30;;;;;;;;;;6028988;29;20313;-69
2023/12/16 07:00:53;;;;;;;7.00;2.60;;;;;;;;;;6027884;29;20590;-68
2023/12/16 07:03:57;;;;;;;9.27;2.47;;;;;;;;;;6023950;29;20302;-69
2023/12/16 07:07:01;;;;;;;8.60;3.00;;;;;;;;;;6025309;29;20302;-70
2023/12/16 07:10:06;;;;;;;9.37;2.50;;;;;;;;;;6024502;29;20318;-70
2023/12/16 07:13:10;;;;;;;16.47;2.63;;;;;;;;;;6024799;29;20309;-70
2023/12/16 07:16:16;;;;;;;9.33;2.70;;;;;;;;;;6024561;29;20343;-70
2023/12/16 07:19:20;;;;;;;9.53;2.70;;;;;;;;;;6024251;29;20479;-70
2023/12/16 07:22:24;;;;;;;11.13;2.97;;;;;;;;;;6024751;29;20293;-70
2023/12/16 07:25:28;;;;;;;7.43;2.40;;;;;;;;;;6024211;29;20309;-70
2023/12/16 07:28:32;;;;;;;8.03;2.43;;;;;;;;;;6024812;29;20305;-70
2023/12/16 07:31:37;;;;;;;7.13;2.50;;;;;;;;;;6024454;29;20389;-70
2023/12/16 07:34:42;;;;;;;6.77;2.33;;;;;;;;;;6038701;29;20427;-70
2023/12/16 07:37:45;;;;;;;6.90;2.20;;;;;;;;;;6024453;29;20498;-70
2023/12/16 07:40:49;;;;;;;6.13;2.40;;;;;;;;;;6023830;29;20591;-70
2023/12/16 07:43:53;;;;;;;11.10;2.70;;;;;;;;;;6024179;29;20286;-70
2023/12/16 07:46:59;;;;;;;9.30;2.53;;;;;;;;;;6023656;29;20469;-70
2023/12/16 07:50:03;;;;;;;9.27;2.93;;;;;;;;;;6023455;29;20386;-70
2023/12/16 07:53:07;;;;;;;13.07;2.63;;;;;;;;;;6024317;29;20298;-70
2023/12/16 07:56:16;;;;;;;10.17;2.77;;;;;;;;;;6023681;29;20301;-70
2023/12/16 07:59:20;;;;;;;11.60;2.53;;;;;;;;;;6023569;29;20445;-70
2023/12/16 08:02:25;;;;;;;11.90;3.20;;;;;;;;;;6024139;29;20322;-70
2023/12/16 08:05:29;;;;;;;15.73;3.27;;;;;;;;;;6023133;29;20301;-70
2023/12/16 08:08:33;;;;;;;12.87;3.20;;;;;;;;;;6023690;29;20305;-70
2023/12/16 08:11:36;;;;;;;16.10;2.60;;;;;;;;;;6023188;29;20290;-70
2023/12/16 08:14:40;;;;;;;14.20;3.77;;;;;;;;;;6020233;29;20295;-70
2023/12/16 08:17:46;;;;;;;16.33;3.43;;;;;;;;;;6000855;29;20300;-70
2023/12/16 08:20:50;;;;;;;12.27;2.80;;;;;;;;;;6017556;29;20298;-70
2023/12/16 08:23:53;;;;;;;11.30;2.80;;;;;;;;;;6023364;29;20300;-70
2023/12/16 08:26:57;;;;;;;12.33;2.80;;;;;;;;;;6023351;29;20297;-69
2023/12/16 08:30:01;;;;;;;10.50;3.40;;;;;;;;;;6018895;29;20310;-69
2023/12/16 08:33:06;;;;;;;12.23;3.27;;;;;;;;;;6023061;29;20301;-70
2023/12/16 08:36:10;;;;;;;9.50;3.93;;;;;;;;;;6022631;29;20310;-70
2023/12/16 08:39:14;;;;;;;8.40;3.28;;;;;;;;;;6023147;29;20302;-69
2023/12/16 08:42:18;;;;;;;11.13;3.03;;;;;;;;;;6018126;29;20301;-69
2023/12/16 08:45:22;;;;;;;14.73;3.23;;;;;;;;;;6032095;29;20302;-69
2023/12/16 08:48:27;;;;;;;15.77;3.17;;;;;;;;;;6023254;29;20298;-70
2023/12/16 08:51:31;;;;;;;10.97;3.17;;;;;;;;;;6022801;29;20306;-69
2023/12/16 08:54:35;;;;;;;15.20;3.70;;;;;;;;;;6020167;29;20298;-70
2023/12/16 08:57:39;;;;;;;10.37;3.43;;;;;;;;;;6021610;29;20321;-69
2023/12/16 09:00:44;;;;;;;9.17;3.03;;;;;;;;;;6020819;29;20306;-69
2023/12/16 09:03:49;;;;;;;11.70;3.03;;;;;;;;;;6022323;29;20306;-70
2023/12/16 09:06:55;;;;;;;15.60;3.60;;;;;;;;;;6020276;29;20449;-69
2023/12/16 09:09:59;;;;;;;18.23;3.53;;;;;;;;;;6022343;29;20342;-69
2023/12/16 09:13:03;;;;;;;15.52;3.58;;;;;;;;;;6001772;29;20294;-70
2023/12/16 09:16:08;;;;;;;14.73;3.92;;;;;;;;;;6013522;29;20484;-70
2023/12/16 09:19:13;;;;;;;18.40;3.97;;;;;;;;;;6006259;29;20366;-70
2023/12/16 09:22:19;;;;;;;16.33;4.05;;;;;;;;;;6022437;29;20512;-69
2023/12/16 09:25:23;;;;;;;18.10;3.90;;;;;;;;;;6021135;29;20290;-69
2023/12/16 09:28:27;;;;;;;11.60;3.75;;;;;;;;;;6022037;29;20454;-70
2023/12/16 09:31:31;;;;;;;10.23;3.07;;;;;;;;;;6023527;29;20448;-68
2023/12/16 09:34:37;;;;;;;15.97;3.50;;;;;;;;;;6022953;29;20298;-70
2023/12/16 09:37:41;;;;;;;14.60;3.20;;;;;;;;;;6023299;29;20302;-70
2023/12/16 09:40:46;;;;;;;16.13;3.40;;;;;;;;;;6022917;29;20501;-70
2023/12/16 09:43:53;;;;;;;18.42;3.35;;;;;;;;;;6023144;29;20345;-71
2023/12/16 09:46:59;;;;;;;15.23;3.00;;;;;;;;;;6022196;29;20472;-69
2023/12/16 09:50:05;;;;;;;10.50;2.97;;;;;;;;;;6022410;29;20298;-70
2023/12/16 09:53:10;;;;;;;20.05;2.92;;;;;;;;;;6022924;29;20246;-70
2023/12/16 09:56:14;;;;;;;15.48;3.22;;;;;;;;;;6022300;29;20326;-69
2023/12/16 09:59:20;;;;;;;13.73;3.20;;;;;;;;;;6022308;29;20294;-70
2023/12/16 10:02:27;;;;;;;6.53;2.40;;;;;;;;;;6023806;29;20302;-69
2023/12/16 10:05:36;;;;;;;12.20;3.13;;;;;;;;;;6019107;29;20295;-70
2023/12/16 10:08:42;;;;;;;11.87;3.07;;;;;;;;;;5999166;29;20480;-70
2023/12/16 10:11:51;;;;;;;16.85;2.72;;;;;;;;;;6012067;29;20495;-70
2023/12/16 10:14:57;;;;;;;17.80;3.08;;;;;;;;;;6022821;29;20302;-69
2023/12/16 10:18:04;;;;;;;12.02;3.25;;;;;;;;;;6023147;29;20311;-68
2023/12/16 10:21:09;;;;;;;16.08;2.85;;;;;;;;;;6014172;29;20303;-69
2023/12/16 10:24:21;;;;;;;11.48;2.72;;;;;;;;;;5999636;29;20299;-69
2023/12/16 10:27:26;;;;;;;5.63;2.20;;;;;;;;;;6000285;29;20370;-68
2023/12/16 10:30:31;;;;;;;8.60;2.42;;;;;;;;;;5999750;29;20303;-68
2023/12/16 10:33:35;;;;;;;11.63;2.70;;;;;;;;;;5999661;29;20303;-69
2023/12/16 10:36:41;;;;;;;6.78;2.08;;;;;;;;;;6001567;29;20299;-68
2023/12/16 10:39:45;;;;;;;13.18;3.05;;;;;;;;;;6003826;29;20463;-67
2023/12/16 10:42:49;;;;;;;19.63;3.22;;;;;;;;;;6004228;29;20533;-68
2023/12/16 10:45:53;;;;;;;15.35;2.97;;;;;;;;;;6003950;29;20302;-69
2023/12/16 10:48:58;;;;;;;6.47;2.65;;;;;;;;;;6003339;29;20487;-68
2023/12/16 10:52:07;;;;;;;12.05;3.10;;;;;;;;;;6008104;29;20295;-68
2023/12/16 10:55:14;;;;;;;9.30;2.80;;;;;;;;;;6003336;29;20311;-68
2023/12/16 10:58:22;;;;;;;8.27;2.83;;;;;;;;;;6004058;29;20335;-69
2023/12/16 11:01:29;;;;;;;10.60;2.63;;;;;;;;;;6003109;29;20303;-67
2023/12/16 11:04:34;;;;;;;8.50;2.90;;;;;;;;;;6003031;29;20299;-69
2023/12/16 11:07:40;;;;;;;9.40;3.03;;;;;;;;;;6002096;29;20306;-70
2023/12/16 11:10:45;;;;;;;9.30;3.43;;;;;;;;;;6005405;29;20298;-69
2023/12/16 11:13:52;;;;;;;11.57;3.15;;;;;;;;;;6024728;29;20306;-69
2023/12/16 11:17:08;;;;;;;7.53;2.83;;;;;;;;;;6024115;29;20302;-71
2023/12/16 11:20:16;;;;;;;4.90;2.30;;;;;;;;;;6024089;29;20551;-71
2023/12/16 11:23:23;;;;;;;6.05;2.78;;;;;;;;;;6024436;29;20360;-69
2023/12/16 11:26:27;;;;;;;7.22;3.30;;;;;;;;;;6023879;29;20302;-71
2023/12/16 11:29:31;;;;;;;6.72;2.88;;;;;;;;;;6037984;29;20290;-69
2023/12/16 11:32:35;;;;;;;12.70;2.80;;;;;;;;;;6024234;29;20254;-68
2023/12/16 11:35:46;;;;;;;6.25;2.67;;;;;;;;;;6023564;29;20300;-69
2023/12/16 11:38:52;;;;;;;7.85;2.67;;;;;;;;;;6023628;29;20290;-69
2023/12/16 11:41:55;;;;;;;2.75;2.42;;;;;;;;;;6024450;29;20505;-70
2023/12/16 11:44:59;;;;;;;8.45;2.50;;;;;;;;;;6014297;29;20599;-70
2023/12/16 11:48:04;;;;;;;3.50;2.78;;;;;;;;;;6000658;29;20306;-69
2023/12/16 11:51:07;;;;;;;5.03;2.20;;;;;;;;;;6000631;29;20587;-66
2023/12/16 11:54:13;;;;;;;2.97;2.17;;;;;;;;;;6000937;29;20291;-68
2023/12/16 11:57:20;;;;;;;3.88;2.30;;;;;;;;;;6001222;29;20502;-69
2023/12/16 12:00:27;;;;;;;5.20;2.30;;;;;;;;;;6000245;29;20303;-68
2023/12/16 12:03:31;;;;;;;8.20;2.67;;;;;;;;;;6000560;29;20298;-67
2023/12/16 12:06:36;;;;;;;4.28;2.20;;;;;;;;;;6000691;29;20380;-68
2023/12/16 12:09:42;;;;;;;2.90;2.13;;;;;;;;;;5999140;29;20291;-68
2023/12/16 12:12:47;;;;;;;3.58;2.10;;;;;;;;;;6019875;29;20306;-69
2023/12/16 12:15:51;;;;;;;1.92;1.90;;;;;;;;;;6022578;29;20298;-69
2023/12/16 12:18:56;;;;;;;4.05;2.13;;;;;;;;;;6022705;29;20302;-68
2023/12/16 12:22:00;;;;;;;3.47;1.90;;;;;;;;;;6000474;29;20620;-69
2023/12/16 12:25:06;;;;;;;2.40;2.10;;;;;;;;;;6000052;29;20304;-68
2023/12/16 12:28:10;;;;;;;2.05;1.95;;;;;;;;;;6000647;29;20491;-70
2023/12/16 12:31:16;;;;;;;1.88;1.80;;;;;;;;;;5999845;29;20591;-70
2023/12/16 12:34:20;;;;;;;6.47;2.20;;;;;;;;;;6000080;29;20306;-69
2023/12/16 12:37:24;;;;;;;6.57;2.17;;;;;;;;;;6000676;29;20299;-70
2023/12/16 12:40:29;;;;;;;2.42;1.80;;;;;;;;;;6000191;29;20295;-69
2023/12/16 12:43:35;;;;;;;7.53;2.08;;;;;;;;;;5999920;29;20299;-70
2023/12/16 12:46:46;;;;;;;2.47;2.03;;;;;;;;;;6010029;29;20359;-69
2023/12/16 12:49:50;;;;;;;2.58;2.20;;;;;;;;;;5999875;29;20300;-70
2023/12/16 12:52:54;;;;;;;3.43;3.23;;;;;;;;;;6000307;29;20302;-70
2023/12/16 12:56:19;;;;;;;2.00;2.00;;;;;;;;;;5997898;29;20303;-69
2023/12/16 12:59:23;;;;;;;4.10;2.83;;;;;;;;;;5998891;29;20291;-70
2023/12/16 13:02:46;;;;;;;5.07;2.50;;;;;;;;;;5998448;29;20303;-70
2023/12/16 13:05:50;;;;;;;2.65;2.50;;;;;;;;;;6006085;29;20285;-69
2023/12/16 13:08:55;;;;;;;5.47;2.60;;;;;;;;;;6021818;29;20305;-69
2023/12/16 13:12:00;;;;;;;2.67;2.58;;;;;;;;;;6022056;29;20311;-69
2023/12/16 13:15:04;;;;;;;4.03;2.60;;;;;;;;;;6021256;29;20579;-69
2023/12/16 13:18:09;;;;;;;2.85;2.70;;;;;;;;;;6021835;29;20302;-69
2023/12/16 13:21:15;;;;;;;4.80;2.70;;;;;;;;;;6021330;29;20298;-69
2023/12/16 13:24:18;;;;;;;3.65;2.63;;;;;;;;;;6021569;29;20575;-69
2023/12/16 13:27:26;;;;;;;2.70;2.50;;;;;;;;;;6021741;29;20302;-69
2023/12/16 13:30:29;;;;;;;5.05;2.88;;;;;;;;;;6021501;29;20297;-70
2023/12/16 13:33:34;;;;;;;3.15;2.95;;;;;;;;;;6021256;29;20302;-69
2023/12/16 13:36:38;;;;;;;3.42;2.53;;;;;;;;;;6005738;29;20299;-69
2023/12/16 13:39:54;;;;;;;3.28;2.97;;;;;;;;;;5998764;29;20295;-69
2023/12/16 13:42:59;;;;;;;3.53;2.92;;;;;;;;;;5999315;29;20319;-69
2023/12/16 13:46:06;;;;;;;3.30;2.97;;;;;;;;;;5998815;29;20303;-69
2023/12/16 13:49:29;;;;;;;3.38;3.13;;;;;;;;;;5998468;29;20295;-69
2023/12/16 13:52:33;;;;;;;4.13;2.90;;;;;;;;;;5999446;29;20304;-70
2023/12/16 13:55:36;;;;;;;4.40;3.15;;;;;;;;;;5998846;29;20295;-69
2023/12/16 13:58:42;;;;;;;3.50;3.00;;;;;;;;;;5994853;29;20299;-69
2023/12/16 14:01:46;;;;;;;3.40;3.20;;;;;;;;;;5998720;29;20307;-69
2023/12/16 14:04:49;;;;;;;6.78;3.10;;;;;;;;;;5998684;29;20295;-69
2023/12/16 14:07:54;;;;;;;4.90;2.90;;;;;;;;;;5998743;29;20310;-69
2023/12/16 14:10:57;;;;;;;6.80;3.20;;;;;;;;;;6003900;29;20358;-70
2023/12/16 14:14:03;;;;;;;4.78;3.03;;;;;;;;;;6024810;29;20297;-69
2023/12/16 14:17:06;;;;;;;6.60;3.00;;;;;;;;;;6039946;29;20303;-69
2023/12/16 14:20:11;;;;;;;3.28;3.10;;;;;;;;;;6025270;29;20294;-68
2023/12/16 14:23:15;;;;;;;3.50;3.30;;;;;;;;;;6025796;29;20305;-69
2023/12/16 14:26:19;;;;;;;4.63;2.90;;;;;;;;;;6025463;29;20327;-69
2023/12/16 14:29:24;;;;;;;3.15;2.88;;;;;;;;;;6025113;29;20294;-69
2023/12/16 14:32:28;;;;;;;4.60;2.95;;;;;;;;;;6025687;29;20560;-69
2023/12/16 14:35:32;;;;;;;3.40;2.83;;;;;;;;;;6024930;29;20294;-68
2023/12/16 14:38:40;;;;;;;9.82;2.95;;;;;;;;;;6025083;29;20302;-68
2023/12/16 14:41:44;;;;;;;6.43;2.85;;;;;;;;;;6024341;29;20488;-69
2023/12/16 14:44:49;;;;;;;7.25;3.00;;;;;;;;;;6025025;29;20298;-69
2023/12/16 14:47:53;;;;;;;6.75;3.05;;;;;;;;;;6022375;29;20479;-69
2023/12/16 14:50:57;;;;;;;5.72;2.42;;;;;;;;;;6023664;29;20294;-69
2023/12/16 14:54:01;;;;;;;3.58;2.33;;;;;;;;;;6024954;29;20261;-68
2023/12/16 14:57:05;;;;;;;3.55;2.25;;;;;;;;;;6025123;29;20301;-69
2023/12/16 15:00:12;;;;;;;2.65;2.45;;;;;;;;;;6024284;29;20306;-69
2023/12/16 15:03:15;;;;;;;5.30;2.10;;;;;;;;;;6023581;29;20324;-69
2023/12/16 15:06:20;;;;;;;4.43;2.25;;;;;;;;;;6016250;29;20298;-69
2023/12/16 15:09:33;;;;;;;2.67;2.30;;;;;;;;;;6014468;29;20303;-69
2023/12/16 15:12:36;;;;;;;2.58;2.40;;;;;;;;;;5984441;29;20327;-69
2023/12/16 15:15:44;;;;;;;4.10;2.30;;;;;;;;;;5975988;29;20319;-69
2023/12/16 15:18:48;;;;;;;3.97;2.13;;;;;;;;;;5992507;29;20315;-70
2023/12/16 15:21:54;;;;;;;2.85;1.95;;;;;;;;;;5999345;29;20303;-69
2023/12/16 15:24:59;;;;;;;3.50;2.05;;;;;;;;;;6000657;29;20302;-68
2023/12/16 15:28:03;;;;;;;6.03;1.95;;;;;;;;;;5978703;29;20454;-69
2023/12/16 15:31:08;;;;;;;2.92;1.80;;;;;;;;;;5978511;29;20311;-70
2023/12/16 15:34:12;;;;;;;5.40;1.85;;;;;;;;;;5978826;29;20304;-69
2023/12/16 15:37:16;;;;;;;1.88;1.77;;;;;;;;;;5978874;29;20296;-70
2023/12/16 15:40:21;;;;;;;1.70;1.60;;;;;;;;;;5977425;29;20304;-70
2023/12/16 15:43:25;;;;;;;5.50;2.00;;;;;;;;;;5977370;29;20499;-71
2023/12/16 15:46:30;;;;;;;4.93;2.10;;;;;;;;;;5993591;29;20298;-68
2023/12/16 15:49:34;;;;;;;5.22;2.10;;;;;;;;;;5972462;29;20295;-71
2023/12/16 15:52:41;;;;;;;3.63;2.13;;;;;;;;;;5979869;29;20608;-69
2023/12/16 15:55:45;;;;;;;1.90;1.73;;;;;;;;;;5978540;29;20314;-69
2023/12/16 15:58:49;;;;;;;2.95;2.38;;;;;;;;;;5977925;29;20295;-69
2023/12/16 16:01:54;;;;;;;4.57;1.92;;;;;;;;;;5977558;29;20612;-69
2023/12/16 16:04:58;;;;;;;5.82;1.75;;;;;;;;;;5977285;29;20312;-69
2023/12/16 16:08:03;;;;;;;3.58;2.00;;;;;;;;;;5991091;29;20332;-69
2023/12/16 16:11:07;;;;;;;4.88;2.22;;;;;;;;;;6006880;29;20290;-69
2023/12/16 16:14:11;;;;;;;2.78;1.88;;;;;;;;;;6022448;29;20309;-68
2023/12/16 16:17:16;;;;;;;4.45;2.15;;;;;;;;;;6023095;29;20322;-68
2023/12/16 16:20:20;;;;;;;3.72;2.10;;;;;;;;;;6022754;29;20303;-69
2023/12/16 16:23:25;;;;;;;2.08;1.60;;;;;;;;;;6022956;29;20298;-69
2023/12/16 16:26:29;;;;;;;4.90;1.90;;;;;;;;;;6022631;29;20453;-68
2023/12/16 16:29:35;;;;;;;4.32;1.60;;;;;;;;;;6022544;29;20296;-69
2023/12/16 16:32:40;;;;;;;3.05;2.00;;;;;;;;;;6022969;29;20314;-67
2023/12/16 16:35:44;;;;;;;5.80;1.92;;;;;;;;;;6022201;29;20298;-68
2023/12/16 16:38:48;;;;;;;4.43;2.03;;;;;;;;;;6022407;29;20306;-69
2023/12/16 16:41:52;;;;;;;3.25;1.83;;;;;;;;;;6022910;29;20298;-70
2023/12/16 16:44:57;;;;;;;5.88;1.65;;;;;;;;;;6022127;29;20315;-70
2023/12/16 16:48:03;;;;;;;5.88;2.05;;;;;;;;;;6022320;29;20306;-67
2023/12/16 16:51:08;;;;;;;4.63;1.52;;;;;;;;;;6036279;29;20310;-67
2023/12/16 16:54:14;;;;;;;6.13;1.85;;;;;;;;;;6021945;29;20302;-68
2023/12/16 16:57:21;;;;;;;1.90;1.75;;;;;;;;;;6022229;29;20606;-68
2023/12/16 17:00:25;;;;;;;4.03;2.05;;;;;;;;;;6021704;29;20298;-68
2023/12/16 17:03:34;;;;;;;3.80;1.80;;;;;;;;;;6021557;29;20309;-68
2023/12/16 17:06:38;;;;;;;7.15;1.83;;;;;;;;;;6021973;29;20291;-68
2023/12/16 17:09:42;;;;;;;2.75;1.70;;;;;;;;;;6022119;29;20306;-70
2023/12/16 17:12:46;;;;;;;2.25;1.83;;;;;;;;;;6003349;29;20303;-69
2023/12/16 17:15:50;;;;;;;4.97;1.83;;;;;;;;;;5999366;29;20294;-68
2023/12/16 17:18:56;;;;;;;3.50;1.90;;;;;;;;;;5999120;29;20316;-69
2023/12/16 17:21:59;;;;;;;2.17;1.88;;;;;;;;;;5999868;29;20302;-68
2023/12/16 17:25:04;;;;;;;3.78;1.75;;;;;;;;;;5997661;29;20591;-68
2023/12/16 17:28:08;;;;;;;4.78;2.00;;;;;;;;;;5999350;29;20299;-67
2023/12/16 17:31:12;;;;;;;3.10;1.40;;;;;;;;;;5999232;29;20307;-68
2023/12/16 17:34:17;;;;;;;4.90;1.90;;;;;;;;;;5999046;29;20303;-68
2023/12/16 17:37:21;;;;;;;5.13;2.50;;;;;;;;;;5999332;29;20299;-68
2023/12/16 17:40:25;;;;;;;2.28;1.88;;;;;;;;;;5998712;29;20306;-69
2023/12/16 17:43:29;;;;;;;3.85;1.58;;;;;;;;;;5997868;29;20312;-68
2023/12/16 17:46:33;;;;;;;6.70;2.10;;;;;;;;;;5997704;29;20303;-68
2023/12/16 17:49:38;;;;;;;7.60;1.90;;;;;;;;;;6014678;29;20302;-67
2023/12/16 17:52:42;;;;;;;2.25;1.45;;;;;;;;;;6021742;29;20294;-67
2023/12/16 17:55:46;;;;;;;1.95;1.60;;;;;;;;;;6021318;29;20290;-68
2023/12/16 17:58:50;;;;;;;2.45;1.75;;;;;;;;;;6020912;29;20305;-67
2023/12/16 18:01:53;;;;;;;2.70;1.83;;;;;;;;;;6021315;29;20298;-68
2023/12/16 18:04:59;;;;;;;1.88;1.70;;;;;;;;;;6020507;29;20302;-71
2023/12/16 18:08:05;;;;;;;2.28;1.55;;;;;;;;;;6021572;29;20303;-70
2023/12/16 18:11:09;;;;;;;3.97;1.58;;;;;;;;;;6014354;29;20311;-68
2023/12/16 18:14:13;;;;;;;4.32;1.70;;;;;;;;;;6010065;29;20302;-68
2023/12/16 18:17:17;;;;;;;2.90;1.63;;;;;;;;;;5998715;29;20470;-70
2023/12/16 18:20:26;;;;;;;3.85;1.60;;;;;;;;;;5998190;29;20351;-70
2023/12/16 18:23:30;;;;;;;5.72;1.70;;;;;;;;;;5998449;29;20315;-70
2023/12/16 18:26:35;;;;;;;2.08;1.70;;;;;;;;;;5997887;29;20298;-70